createdAt,value
2023-03-20T00:06:47.087Z,54.16
2023-03-20T00:17:18.398Z,54.38
2023-03-20T00:27:45.037Z,54.26
2023-03-20T00:38:11.474Z,54.35
2023-03-20T00:48:37.806Z,54.60
2023-03-20T00:59:05.145Z,54.29
2023-03-20T01:09:31.105Z,54.33
2023-03-20T01:19:56.698Z,53.86
2023-03-20T01:30:25.753Z,54.14
2023-03-20T01:40:58.393Z,53.83
2023-03-20T01:51:26.120Z,53.42
2023-03-20T02:01:52.190Z,53.28
2023-03-20T02:12:18.362Z,53.54
2023-03-20T02:23:31.978Z,53.83
2023-03-20T02:34:30.308Z,53.32
2023-03-20T02:45:05.896Z,52.85
2023-03-20T02:55:41.153Z,52.78
2023-03-20T03:06:12.200Z,53.38
2023-03-20T03:16:41.944Z,53.63
2023-03-20T03:27:14.976Z,53.27
2023-03-20T03:37:49.344Z,52.87
2023-03-20T03:48:19.869Z,52.98
2023-03-20T03:58:50.733Z,52.95
2023-03-20T04:09:16.581Z,53.03
2023-03-20T04:19:42.608Z,53.11
2023-03-20T04:30:10.703Z,52.76
2023-03-20T04:40:36.511Z,52.69
2023-03-20T04:51:02.104Z,53.02
2023-03-20T05:01:28.051Z,52.99
2023-03-20T05:11:54.034Z,52.89
2023-03-20T05:22:19.955Z,52.64
2023-03-20T05:32:46.009Z,52.77
2023-03-20T05:43:11.504Z,52.98
2023-03-20T05:53:37.306Z,53.22
2023-03-20T06:04:03.425Z,53.70
2023-03-20T06:14:29.328Z,54.00
2023-03-20T06:24:56.962Z,54.83
2023-03-20T06:35:23.287Z,54.98
2023-03-20T06:45:49.288Z,54.15
2023-03-20T06:56:15.270Z,53.86
2023-03-20T07:06:40.968Z,53.62
2023-03-20T07:17:07.038Z,53.72
2023-03-20T07:27:32.772Z,53.88
2023-03-20T07:37:58.716Z,53.82
2023-03-20T07:48:24.378Z,54.19
2023-03-20T07:58:50.285Z,54.96
2023-03-20T08:09:16.334Z,56.31
2023-03-20T08:19:42.183Z,57.76
2023-03-20T08:30:17.244Z,59.22
2023-03-20T08:40:44.819Z,59.90
2023-03-20T08:51:10.901Z,60.53
2023-03-20T09:01:48.751Z,61.19
2023-03-20T09:12:15.972Z,61.68
2023-03-20T09:22:43.908Z,61.87
2023-03-20T09:33:09.729Z,61.84
2023-03-20T09:43:53.532Z,62.03
2023-03-20T09:54:25.689Z,62.01
2023-03-20T10:04:54.097Z,62.23
2023-03-20T10:15:26.552Z,62.18
2023-03-20T10:25:55.345Z,62.39
2023-03-20T10:36:39.255Z,62.52
2023-03-20T10:47:09.012Z,62.34
2023-03-20T10:57:38.764Z,62.17
2023-03-20T11:08:07.852Z,62.19
2023-03-20T11:18:34.009Z,62.25
2023-03-20T11:29:01.944Z,62.06
2023-03-20T11:39:29.967Z,62.10
2023-03-20T11:49:59.401Z,62.09
2023-03-20T12:00:28.429Z,61.92
2023-03-20T12:11:00.662Z,60.91
2023-03-20T12:21:32.075Z,60.01
2023-03-20T12:32:03.811Z,59.17
2023-03-20T12:42:45.957Z,58.07
2023-03-20T12:53:35.863Z,57.33
2023-03-20T13:04:22.357Z,56.89
2023-03-20T13:14:54.970Z,57.34
2023-03-20T13:25:32.628Z,57.62
2023-03-20T13:36:09.586Z,57.82
2023-03-20T13:46:41.889Z,58.08
2023-03-20T13:57:20.706Z,58.47
2023-03-20T14:07:48.667Z,59.16
2023-03-20T14:18:16.967Z,60.01
2023-03-20T14:28:58.952Z,60.80
2023-03-20T14:39:35.809Z,61.49
2023-03-20T14:50:12.039Z,61.58
2023-03-20T15:00:48.287Z,61.66
2023-03-20T15:11:17.116Z,61.46
2023-03-20T15:21:45.555Z,61.39
2023-03-20T15:32:15.422Z,61.29
2023-03-20T15:42:41.176Z,61.38
2023-03-20T15:53:11.253Z,61.16
2023-03-20T16:03:41.161Z,61.02
2023-03-20T16:14:09.078Z,61.28
2023-03-20T16:24:39.372Z,61.61
2023-03-20T16:35:09.878Z,61.69
2023-03-20T16:45:38.503Z,61.62
2023-03-20T16:56:06.162Z,61.63
2023-03-20T17:06:37.125Z,61.52
2023-03-20T17:17:02.971Z,61.62
2023-03-20T17:27:29.992Z,61.07
2023-03-20T17:37:55.582Z,60.71
2023-03-20T17:48:23.024Z,61.22
2023-03-20T17:58:49.085Z,61.11
2023-03-20T18:09:15.432Z,61.58
2023-03-20T18:19:41.506Z,61.83
2023-03-20T18:30:15.343Z,63.17
2023-03-20T18:40:40.683Z,64.17
2023-03-20T18:51:07.156Z,64.75
2023-03-20T19:01:32.666Z,65.12
2023-03-20T19:11:58.258Z,65.56
2023-03-20T19:22:29.621Z,65.63
2023-03-20T19:32:55.977Z,65.71
2023-03-20T19:43:22.641Z,65.67
2023-03-20T19:53:49.275Z,65.87
2023-03-20T20:04:15.171Z,66.22
2023-03-20T20:14:41.002Z,66.37
2023-03-20T20:25:07.743Z,66.41
2023-03-20T20:35:55.903Z,66.46
2023-03-20T20:46:20.185Z,66.51
2023-03-20T20:56:46.227Z,66.79
2023-03-20T21:07:13.492Z,66.99
2023-03-20T21:17:53.860Z,67.24
2023-03-20T21:28:25.337Z,67.44
2023-03-20T21:39:07.235Z,67.60
2023-03-20T22:22:43.321Z,67.35
2023-03-20T22:44:24.893Z,67.03
2023-03-20T22:54:14.444Z,67.16
2023-03-20T23:04:40.210Z,67.55
2023-03-20T23:15:06.951Z,67.84
2023-03-20T23:25:39.414Z,68.65
2023-03-20T23:36:16.489Z,69.20
2023-03-20T23:46:50.426Z,69.08
2023-03-20T23:57:15.987Z,68.94
